sensor_id;sensor_type;location;lat;lon;timestamp;P1;durP1;ratioP1;P2;durP2;ratioP2
68792;SDS011;55778;54.346;10.210;2023-03-19T00:02:21;58.25;;;25.58;;
68792;SDS011;55778;54.346;10.210;2023-03-19T00:04:46;60.45;;;25.60;;
68792;SDS011;55778;54.346;10.210;2023-03-19T00:07:12;59.05;;;25.10;;
68792;SDS011;55778;54.346;10.210;2023-03-19T00:09:38;56.88;;;26.27;;
68792;SDS011;55778;54.346;10.210;2023-03-19T00:12:04;58.90;;;24.25;;
68792;SDS011;55778;54.346;10.210;2023-03-19T00:14:30;60.95;;;25.00;;
68792;SDS011;55778;54.346;10.210;2023-03-19T00:16:56;61.35;;;25.02;;
68792;SDS011;55778;54.346;10.210;2023-03-19T00:19:21;59.50;;;24.40;;
68792;SDS011;55778;54.346;10.210;2023-03-19T00:21:47;63.40;;;26.35;;
68792;SDS011;55778;54.346;10.210;2023-03-19T00:24:12;60.00;;;25.05;;
68792;SDS011;55778;54.346;10.210;2023-03-19T00:26:38;58.78;;;25.02;;
68792;SDS011;55778;54.346;10.210;2023-03-19T00:29:03;65.80;;;27.27;;
68792;SDS011;55778;54.346;10.210;2023-03-19T00:31:29;59.75;;;25.75;;
68792;SDS011;55778;54.346;10.210;2023-03-19T00:33:58;54.97;;;23.67;;
68792;SDS011;55778;54.346;10.210;2023-03-19T00:36:24;56.15;;;24.70;;
68792;SDS011;55778;54.346;10.210;2023-03-19T00:38:51;55.17;;;24.25;;
68792;SDS011;55778;54.346;10.210;2023-03-19T00:41:17;55.88;;;24.88;;
68792;SDS011;55778;54.346;10.210;2023-03-19T00:43:43;56.53;;;25.40;;
68792;SDS011;55778;54.346;10.210;2023-03-19T00:46:08;56.95;;;24.90;;
68792;SDS011;55778;54.346;10.210;2023-03-19T00:48:34;58.92;;;25.27;;
68792;SDS011;55778;54.346;10.210;2023-03-19T00:51:06;54.20;;;24.10;;
68792;SDS011;55778;54.346;10.210;2023-03-19T00:53:36;59.40;;;24.60;;
68792;SDS011;55778;54.346;10.210;2023-03-19T00:56:03;63.78;;;25.17;;
68792;SDS011;55778;54.346;10.210;2023-03-19T00:58:29;56.72;;;24.85;;
68792;SDS011;55778;54.346;10.210;2023-03-19T01:00:55;54.97;;;23.65;;
68792;SDS011;55778;54.346;10.210;2023-03-19T01:03:20;59.15;;;24.60;;
68792;SDS011;55778;54.346;10.210;2023-03-19T01:05:49;57.67;;;24.65;;
68792;SDS011;55778;54.346;10.210;2023-03-19T01:08:15;62.53;;;25.38;;
68792;SDS011;55778;54.346;10.210;2023-03-19T01:10:42;58.72;;;25.10;;
68792;SDS011;55778;54.346;10.210;2023-03-19T01:13:08;66.30;;;26.25;;
68792;SDS011;55778;54.346;10.210;2023-03-19T01:15:37;60.03;;;24.35;;
68792;SDS011;55778;54.346;10.210;2023-03-19T01:18:03;61.88;;;23.98;;
68792;SDS011;55778;54.346;10.210;2023-03-19T01:20:29;63.10;;;24.23;;
68792;SDS011;55778;54.346;10.210;2023-03-19T01:22:55;59.40;;;24.50;;
68792;SDS011;55778;54.346;10.210;2023-03-19T01:25:21;58.65;;;24.25;;
68792;SDS011;55778;54.346;10.210;2023-03-19T01:27:46;55.97;;;24.08;;
68792;SDS011;55778;54.346;10.210;2023-03-19T01:30:12;56.15;;;24.42;;
68792;SDS011;55778;54.346;10.210;2023-03-19T01:32:37;55.22;;;24.35;;
68792;SDS011;55778;54.346;10.210;2023-03-19T01:35:03;58.58;;;25.33;;
68792;SDS011;55778;54.346;10.210;2023-03-19T01:37:28;59.30;;;25.02;;
68792;SDS011;55778;54.346;10.210;2023-03-19T01:39:54;55.13;;;23.52;;
68792;SDS011;55778;54.346;10.210;2023-03-19T01:42:19;60.25;;;23.52;;
68792;SDS011;55778;54.346;10.210;2023-03-19T01:44:45;58.08;;;24.45;;
68792;SDS011;55778;54.346;10.210;2023-03-19T01:47:15;58.08;;;24.40;;
68792;SDS011;55778;54.346;10.210;2023-03-19T01:49:46;53.13;;;24.33;;
68792;SDS011;55778;54.346;10.210;2023-03-19T01:52:17;55.70;;;24.10;;
68792;SDS011;55778;54.346;10.210;2023-03-19T01:54:44;58.15;;;24.20;;
68792;SDS011;55778;54.346;10.210;2023-03-19T01:57:10;61.38;;;24.20;;
68792;SDS011;55778;54.346;10.210;2023-03-19T01:59:41;59.72;;;25.05;;
68792;SDS011;55778;54.346;10.210;2023-03-19T02:02:14;62.17;;;24.80;;
68792;SDS011;55778;54.346;10.210;2023-03-19T02:04:45;59.63;;;24.38;;
68792;SDS011;55778;54.346;10.210;2023-03-19T02:09:40;64.43;;;25.90;;
68792;SDS011;55778;54.346;10.210;2023-03-19T02:12:06;61.03;;;24.67;;
68792;SDS011;55778;54.346;10.210;2023-03-19T02:14:33;65.22;;;24.55;;
68792;SDS011;55778;54.346;10.210;2023-03-19T02:16:58;64.05;;;24.98;;
68792;SDS011;55778;54.346;10.210;2023-03-19T02:19:31;60.10;;;25.65;;
68792;SDS011;55778;54.346;10.210;2023-03-19T02:22:04;65.20;;;26.45;;
68792;SDS011;55778;54.346;10.210;2023-03-19T02:24:31;62.13;;;24.35;;
68792;SDS011;55778;54.346;10.210;2023-03-19T02:27:00;60.65;;;24.73;;
68792;SDS011;55778;54.346;10.210;2023-03-19T02:29:26;67.03;;;26.52;;
68792;SDS011;55778;54.346;10.210;2023-03-19T02:31:51;62.22;;;24.50;;
68792;SDS011;55778;54.346;10.210;2023-03-19T02:36:50;67.15;;;25.60;;
68792;SDS011;55778;54.346;10.210;2023-03-19T02:39:21;61.50;;;25.33;;
68792;SDS011;55778;54.346;10.210;2023-03-19T02:41:52;65.72;;;26.48;;
68792;SDS011;55778;54.346;10.210;2023-03-19T02:44:19;58.42;;;25.15;;
68792;SDS011;55778;54.346;10.210;2023-03-19T02:46:47;65.55;;;25.60;;
68792;SDS011;55778;54.346;10.210;2023-03-19T02:49:12;60.85;;;25.27;;
68792;SDS011;55778;54.346;10.210;2023-03-19T02:51:38;65.00;;;25.10;;
68792;SDS011;55778;54.346;10.210;2023-03-19T02:54:03;62.10;;;25.13;;
68792;SDS011;55778;54.346;10.210;2023-03-19T02:56:29;64.82;;;25.67;;
68792;SDS011;55778;54.346;10.210;2023-03-19T02:58:55;62.88;;;26.08;;
68792;SDS011;55778;54.346;10.210;2023-03-19T03:01:21;64.82;;;24.90;;
68792;SDS011;55778;54.346;10.210;2023-03-19T03:03:47;66.07;;;25.40;;
68792;SDS011;55778;54.346;10.210;2023-03-19T03:06:12;64.07;;;25.52;;
68792;SDS011;55778;54.346;10.210;2023-03-19T03:08:38;63.85;;;25.33;;
68792;SDS011;55778;54.346;10.210;2023-03-19T03:11:04;64.55;;;25.83;;
68792;SDS011;55778;54.346;10.210;2023-03-19T03:13:29;64.80;;;25.27;;
68792;SDS011;55778;54.346;10.210;2023-03-19T03:15:54;67.07;;;26.58;;
68792;SDS011;55778;54.346;10.210;2023-03-19T03:18:20;68.45;;;26.27;;
68792;SDS011;55778;54.346;10.210;2023-03-19T03:20:46;69.45;;;27.23;;
68792;SDS011;55778;54.346;10.210;2023-03-19T03:23:12;67.60;;;26.27;;
68792;SDS011;55778;54.346;10.210;2023-03-19T03:25:37;68.22;;;25.95;;
68792;SDS011;55778;54.346;10.210;2023-03-19T03:28:02;61.28;;;25.33;;
68792;SDS011;55778;54.346;10.210;2023-03-19T03:30:28;69.78;;;26.40;;
68792;SDS011;55778;54.346;10.210;2023-03-19T03:32:53;66.03;;;27.05;;
68792;SDS011;55778;54.346;10.210;2023-03-19T03:35:19;64.63;;;26.77;;
68792;SDS011;55778;54.346;10.210;2023-03-19T03:37:50;67.80;;;26.15;;
68792;SDS011;55778;54.346;10.210;2023-03-19T03:40:16;69.40;;;26.77;;
68792;SDS011;55778;54.346;10.210;2023-03-19T03:42:42;63.72;;;25.80;;
68792;SDS011;55778;54.346;10.210;2023-03-19T03:45:08;67.38;;;25.83;;
68792;SDS011;55778;54.346;10.210;2023-03-19T03:47:34;67.82;;;26.42;;
68792;SDS011;55778;54.346;10.210;2023-03-19T03:50:01;67.47;;;26.75;;
68792;SDS011;55778;54.346;10.210;2023-03-19T03:52:29;60.80;;;25.98;;
68792;SDS011;55778;54.346;10.210;2023-03-19T03:54:56;61.53;;;24.52;;
68792;SDS011;55778;54.346;10.210;2023-03-19T03:57:22;67.40;;;26.83;;
68792;SDS011;55778;54.346;10.210;2023-03-19T03:59:48;65.55;;;26.20;;
68792;SDS011;55778;54.346;10.210;2023-03-19T04:02:13;61.95;;;25.52;;
68792;SDS011;55778;54.346;10.210;2023-03-19T04:04:39;66.45;;;26.02;;
68792;SDS011;55778;54.346;10.210;2023-03-19T04:07:05;62.45;;;26.00;;
68792;SDS011;55778;54.346;10.210;2023-03-19T04:09:31;63.70;;;25.48;;
68792;SDS011;55778;54.346;10.210;2023-03-19T04:11:57;69.32;;;27.00;;
68792;SDS011;55778;54.346;10.210;2023-03-19T04:14:22;65.50;;;24.85;;
68792;SDS011;55778;54.346;10.210;2023-03-19T04:16:47;65.78;;;26.77;;
68792;SDS011;55778;54.346;10.210;2023-03-19T04:19:13;63.05;;;25.95;;
68792;SDS011;55778;54.346;10.210;2023-03-19T04:21:39;63.80;;;26.45;;
68792;SDS011;55778;54.346;10.210;2023-03-19T04:24:05;69.05;;;26.90;;
68792;SDS011;55778;54.346;10.210;2023-03-19T04:26:31;66.00;;;26.33;;
68792;SDS011;55778;54.346;10.210;2023-03-19T04:28:56;67.93;;;26.90;;
68792;SDS011;55778;54.346;10.210;2023-03-19T04:31:22;71.53;;;26.58;;
68792;SDS011;55778;54.346;10.210;2023-03-19T04:33:48;61.30;;;25.23;;
68792;SDS011;55778;54.346;10.210;2023-03-19T04:36:13;65.10;;;25.73;;
68792;SDS011;55778;54.346;10.210;2023-03-19T04:38:39;66.97;;;25.52;;
68792;SDS011;55778;54.346;10.210;2023-03-19T04:41:04;63.33;;;25.63;;
68792;SDS011;55778;54.346;10.210;2023-03-19T04:43:29;66.78;;;27.08;;
68792;SDS011;55778;54.346;10.210;2023-03-19T04:45:55;64.65;;;25.40;;
68792;SDS011;55778;54.346;10.210;2023-03-19T04:48:20;61.20;;;25.08;;
68792;SDS011;55778;54.346;10.210;2023-03-19T04:50:46;65.10;;;24.73;;
68792;SDS011;55778;54.346;10.210;2023-03-19T04:53:15;71.25;;;25.92;;
68792;SDS011;55778;54.346;10.210;2023-03-19T04:55:41;65.80;;;25.50;;
68792;SDS011;55778;54.346;10.210;2023-03-19T04:58:06;66.63;;;25.25;;
68792;SDS011;55778;54.346;10.210;2023-03-19T05:00:33;69.47;;;25.77;;
68792;SDS011;55778;54.346;10.210;2023-03-19T05:02:58;74.20;;;26.90;;
68792;SDS011;55778;54.346;10.210;2023-03-19T05:05:24;72.80;;;25.98;;
68792;SDS011;55778;54.346;10.210;2023-03-19T05:07:50;62.92;;;26.35;;
68792;SDS011;55778;54.346;10.210;2023-03-19T05:10:15;74.80;;;26.95;;
68792;SDS011;55778;54.346;10.210;2023-03-19T05:12:41;66.22;;;25.40;;
68792;SDS011;55778;54.346;10.210;2023-03-19T05:15:07;67.97;;;26.42;;
68792;SDS011;55778;54.346;10.210;2023-03-19T05:17:33;72.63;;;26.40;;
68792;SDS011;55778;54.346;10.210;2023-03-19T05:20:00;71.72;;;25.73;;
68792;SDS011;55778;54.346;10.210;2023-03-19T05:22:26;67.75;;;26.45;;
68792;SDS011;55778;54.346;10.210;2023-03-19T05:24:52;69.22;;;26.55;;
68792;SDS011;55778;54.346;10.210;2023-03-19T05:27:18;63.45;;;25.60;;
68792;SDS011;55778;54.346;10.210;2023-03-19T05:29:44;62.20;;;24.75;;
68792;SDS011;55778;54.346;10.210;2023-03-19T05:32:10;66.50;;;27.60;;
68792;SDS011;55778;54.346;10.210;2023-03-19T05:34:36;65.75;;;26.42;;
68792;SDS011;55778;54.346;10.210;2023-03-19T05:37:02;67.50;;;25.80;;
68792;SDS011;55778;54.346;10.210;2023-03-19T05:39:27;65.55;;;25.13;;
68792;SDS011;55778;54.346;10.210;2023-03-19T05:41:53;64.13;;;25.38;;
68792;SDS011;55778;54.346;10.210;2023-03-19T05:44:18;61.45;;;24.73;;
68792;SDS011;55778;54.346;10.210;2023-03-19T05:46:45;71.93;;;25.10;;
68792;SDS011;55778;54.346;10.210;2023-03-19T05:49:12;63.28;;;24.73;;
68792;SDS011;55778;54.346;10.210;2023-03-19T05:51:37;61.58;;;24.20;;
68792;SDS011;55778;54.346;10.210;2023-03-19T05:54:03;60.72;;;24.73;;
68792;SDS011;55778;54.346;10.210;2023-03-19T05:56:28;62.40;;;25.50;;
68792;SDS011;55778;54.346;10.210;2023-03-19T05:58:54;59.55;;;25.02;;
68792;SDS011;55778;54.346;10.210;2023-03-19T06:01:19;59.75;;;25.20;;
68792;SDS011;55778;54.346;10.210;2023-03-19T06:03:45;51.53;;;23.42;;
68792;SDS011;55778;54.346;10.210;2023-03-19T06:06:11;56.30;;;23.42;;
68792;SDS011;55778;54.346;10.210;2023-03-19T06:08:36;53.63;;;23.38;;
68792;SDS011;55778;54.346;10.210;2023-03-19T06:11:02;49.95;;;21.73;;
68792;SDS011;55778;54.346;10.210;2023-03-19T06:13:27;49.92;;;22.17;;
68792;SDS011;55778;54.346;10.210;2023-03-19T06:15:52;52.35;;;24.17;;
68792;SDS011;55778;54.346;10.210;2023-03-19T06:18:18;46.75;;;20.42;;
68792;SDS011;55778;54.346;10.210;2023-03-19T06:20:44;49.28;;;21.38;;
68792;SDS011;55778;54.346;10.210;2023-03-19T06:23:11;48.70;;;21.17;;
68792;SDS011;55778;54.346;10.210;2023-03-19T06:25:36;46.33;;;19.50;;
68792;SDS011;55778;54.346;10.210;2023-03-19T06:28:02;49.17;;;21.30;;
68792;SDS011;55778;54.346;10.210;2023-03-19T06:30:29;44.70;;;20.10;;
68792;SDS011;55778;54.346;10.210;2023-03-19T06:32:54;41.47;;;18.75;;
68792;SDS011;55778;54.346;10.210;2023-03-19T06:35:20;38.45;;;17.65;;
68792;SDS011;55778;54.346;10.210;2023-03-19T06:37:45;44.13;;;18.45;;
68792;SDS011;55778;54.346;10.210;2023-03-19T06:40:11;41.60;;;18.83;;
68792;SDS011;55778;54.346;10.210;2023-03-19T06:42:37;40.95;;;17.88;;
68792;SDS011;55778;54.346;10.210;2023-03-19T06:45:02;43.70;;;17.80;;
68792;SDS011;55778;54.346;10.210;2023-03-19T06:47:28;48.92;;;19.25;;
68792;SDS011;55778;54.346;10.210;2023-03-19T06:49:53;45.50;;;18.60;;
68792;SDS011;55778;54.346;10.210;2023-03-19T06:52:18;37.58;;;17.13;;
68792;SDS011;55778;54.346;10.210;2023-03-19T06:54:44;43.35;;;19.33;;
68792;SDS011;55778;54.346;10.210;2023-03-19T06:57:10;40.17;;;17.52;;
68792;SDS011;55778;54.346;10.210;2023-03-19T06:59:35;39.75;;;18.23;;
68792;SDS011;55778;54.346;10.210;2023-03-19T07:02:01;40.90;;;17.90;;
68792;SDS011;55778;54.346;10.210;2023-03-19T07:04:27;37.13;;;17.00;;
68792;SDS011;55778;54.346;10.210;2023-03-19T07:06:52;37.17;;;17.45;;
68792;SDS011;55778;54.346;10.210;2023-03-19T07:09:17;37.15;;;16.85;;
68792;SDS011;55778;54.346;10.210;2023-03-19T07:11:43;37.22;;;17.02;;
68792;SDS011;55778;54.346;10.210;2023-03-19T07:14:08;34.78;;;15.65;;
68792;SDS011;55778;54.346;10.210;2023-03-19T07:16:34;36.78;;;16.23;;
68792;SDS011;55778;54.346;10.210;2023-03-19T07:18:59;31.23;;;14.82;;
68792;SDS011;55778;54.346;10.210;2023-03-19T07:21:25;28.33;;;13.95;;
68792;SDS011;55778;54.346;10.210;2023-03-19T07:23:50;24.75;;;13.45;;
68792;SDS011;55778;54.346;10.210;2023-03-19T07:26:16;24.27;;;13.23;;
68792;SDS011;55778;54.346;10.210;2023-03-19T07:28:42;21.55;;;12.30;;
68792;SDS011;55778;54.346;10.210;2023-03-19T07:31:08;22.23;;;11.45;;
68792;SDS011;55778;54.346;10.210;2023-03-19T07:33:33;24.23;;;11.52;;
68792;SDS011;55778;54.346;10.210;2023-03-19T07:35:58;21.77;;;11.73;;
68792;SDS011;55778;54.346;10.210;2023-03-19T07:38:24;19.20;;;10.90;;
68792;SDS011;55778;54.346;10.210;2023-03-19T07:40:50;23.98;;;13.48;;
68792;SDS011;55778;54.346;10.210;2023-03-19T07:43:15;22.83;;;12.07;;
68792;SDS011;55778;54.346;10.210;2023-03-19T07:45:41;23.90;;;14.95;;
68792;SDS011;55778;54.346;10.210;2023-03-19T07:48:06;21.77;;;12.40;;
68792;SDS011;55778;54.346;10.210;2023-03-19T07:50:32;20.98;;;11.68;;
68792;SDS011;55778;54.346;10.210;2023-03-19T07:52:58;23.23;;;11.73;;
68792;SDS011;55778;54.346;10.210;2023-03-19T07:55:23;23.25;;;12.48;;
68792;SDS011;55778;54.346;10.210;2023-03-19T07:57:49;19.85;;;10.82;;
68792;SDS011;55778;54.346;10.210;2023-03-19T08:00:14;17.52;;;10.50;;
68792;SDS011;55778;54.346;10.210;2023-03-19T08:02:41;16.98;;;9.95;;
68792;SDS011;55778;54.346;10.210;2023-03-19T08:05:07;13.95;;;8.60;;
68792;SDS011;55778;54.346;10.210;2023-03-19T08:07:34;16.75;;;9.20;;
68792;SDS011;55778;54.346;10.210;2023-03-19T08:10:00;15.98;;;8.35;;
68792;SDS011;55778;54.346;10.210;2023-03-19T08:12:26;11.88;;;7.70;;
68792;SDS011;55778;54.346;10.210;2023-03-19T08:14:51;14.35;;;7.88;;
68792;SDS011;55778;54.346;10.210;2023-03-19T08:17:17;14.45;;;8.40;;
68792;SDS011;55778;54.346;10.210;2023-03-19T08:19:42;13.00;;;8.70;;
68792;SDS011;55778;54.346;10.210;2023-03-19T08:22:08;15.38;;;8.23;;
68792;SDS011;55778;54.346;10.210;2023-03-19T08:24:33;12.93;;;7.50;;
68792;SDS011;55778;54.346;10.210;2023-03-19T08:26:59;11.70;;;7.05;;
68792;SDS011;55778;54.346;10.210;2023-03-19T08:29:24;10.02;;;6.55;;
68792;SDS011;55778;54.346;10.210;2023-03-19T08:31:51;10.45;;;7.15;;
68792;SDS011;55778;54.346;10.210;2023-03-19T08:34:17;12.68;;;6.97;;
68792;SDS011;55778;54.346;10.210;2023-03-19T08:36:43;10.55;;;6.72;;
68792;SDS011;55778;54.346;10.210;2023-03-19T08:39:08;11.18;;;6.60;;
68792;SDS011;55778;54.346;10.210;2023-03-19T08:41:34;11.85;;;7.25;;
68792;SDS011;55778;54.346;10.210;2023-03-19T08:43:59;10.68;;;5.95;;
68792;SDS011;55778;54.346;10.210;2023-03-19T08:46:25;9.63;;;6.70;;
68792;SDS011;55778;54.346;10.210;2023-03-19T08:48:51;10.93;;;6.63;;
68792;SDS011;55778;54.346;10.210;2023-03-19T08:51:17;9.65;;;6.60;;
68792;SDS011;55778;54.346;10.210;2023-03-19T08:53:42;11.57;;;6.80;;
68792;SDS011;55778;54.346;10.210;2023-03-19T08:56:08;10.57;;;6.82;;
68792;SDS011;55778;54.346;10.210;2023-03-19T08:58:33;9.73;;;6.45;;
68792;SDS011;55778;54.346;10.210;2023-03-19T09:00:59;10.60;;;6.57;;
68792;SDS011;55778;54.346;10.210;2023-03-19T09:03:29;10.30;;;6.72;;
68792;SDS011;55778;54.346;10.210;2023-03-19T09:05:58;8.75;;;6.50;;
68792;SDS011;55778;54.346;10.210;2023-03-19T09:08:25;11.57;;;7.03;;
68792;SDS011;55778;54.346;10.210;2023-03-19T09:10:52;11.88;;;6.78;;
68792;SDS011;55778;54.346;10.210;2023-03-19T09:13:17;10.02;;;6.43;;
68792;SDS011;55778;54.346;10.210;2023-03-19T09:15:42;11.00;;;7.18;;
68792;SDS011;55778;54.346;10.210;2023-03-19T09:18:08;9.73;;;6.30;;
68792;SDS011;55778;54.346;10.210;2023-03-19T09:20:33;9.20;;;6.32;;
68792;SDS011;55778;54.346;10.210;2023-03-19T09:22:59;10.27;;;6.25;;
68792;SDS011;55778;54.346;10.210;2023-03-19T09:25:24;12.35;;;7.70;;
68792;SDS011;55778;54.346;10.210;2023-03-19T09:27:50;11.30;;;6.85;;
68792;SDS011;55778;54.346;10.210;2023-03-19T09:30:15;9.75;;;6.90;;
68792;SDS011;55778;54.346;10.210;2023-03-19T09:32:41;10.25;;;6.40;;
68792;SDS011;55778;54.346;10.210;2023-03-19T09:35:06;9.25;;;6.10;;
68792;SDS011;55778;54.346;10.210;2023-03-19T09:37:32;11.80;;;6.40;;
68792;SDS011;55778;54.346;10.210;2023-03-19T09:39:58;10.65;;;6.35;;
68792;SDS011;55778;54.346;10.210;2023-03-19T09:42:39;12.50;;;6.35;;
68792;SDS011;55778;54.346;10.210;2023-03-19T09:45:17;10.05;;;6.55;;
68792;SDS011;55778;54.346;10.210;2023-03-19T09:47:44;12.30;;;6.75;;
68792;SDS011;55778;54.346;10.210;2023-03-19T09:50:14;10.63;;;6.43;;
68792;SDS011;55778;54.346;10.210;2023-03-19T09:52:55;10.55;;;6.53;;
68792;SDS011;55778;54.346;10.210;2023-03-19T09:57:47;8.93;;;5.90;;
68792;SDS011;55778;54.346;10.210;2023-03-19T10:00:24;8.27;;;5.90;;
68792;SDS011;55778;54.346;10.210;2023-03-19T10:03:00;8.50;;;6.18;;
68792;SDS011;55778;54.346;10.210;2023-03-19T10:05:31;8.77;;;6.03;;
68792;SDS011;55778;54.346;10.210;2023-03-19T10:08:21;11.68;;;5.60;;
68792;SDS011;55778;54.346;10.210;2023-03-19T10:13:45;7.68;;;4.60;;
68792;SDS011;55778;54.346;10.210;2023-03-19T10:16:21;8.30;;;4.95;;
68792;SDS011;55778;54.346;10.210;2023-03-19T10:18:51;7.85;;;5.22;;
68792;SDS011;55778;54.346;10.210;2023-03-19T10:21:30;7.65;;;4.85;;
68792;SDS011;55778;54.346;10.210;2023-03-19T10:24:05;10.88;;;5.50;;
68792;SDS011;55778;54.346;10.210;2023-03-19T10:26:59;7.90;;;5.05;;
68792;SDS011;55778;54.346;10.210;2023-03-19T10:29:35;8.50;;;5.40;;
68792;SDS011;55778;54.346;10.210;2023-03-19T10:34:34;7.43;;;4.95;;
68792;SDS011;55778;54.346;10.210;2023-03-19T10:39:45;7.65;;;4.82;;
68792;SDS011;55778;54.346;10.210;2023-03-19T10:47:29;6.28;;;3.42;;
68792;SDS011;55778;54.346;10.210;2023-03-19T10:50:02;5.82;;;3.88;;
68792;SDS011;55778;54.346;10.210;2023-03-19T10:52:29;6.90;;;3.78;;
68792;SDS011;55778;54.346;10.210;2023-03-19T10:57:41;6.18;;;4.18;;
68792;SDS011;55778;54.346;10.210;2023-03-19T11:00:17;5.20;;;3.30;;
68792;SDS011;55778;54.346;10.210;2023-03-19T11:02:50;4.13;;;2.85;;
68792;SDS011;55778;54.346;10.210;2023-03-19T11:10:34;3.50;;;2.80;;
68792;SDS011;55778;54.346;10.210;2023-03-19T11:15:32;5.13;;;3.10;;
68792;SDS011;55778;54.346;10.210;2023-03-19T11:18:13;6.70;;;2.58;;
68792;SDS011;55778;54.346;10.210;2023-03-19T11:20:42;4.18;;;2.30;;
68792;SDS011;55778;54.346;10.210;2023-03-19T11:23:15;2.95;;;2.30;;
68792;SDS011;55778;54.346;10.210;2023-03-19T11:25:45;3.30;;;2.20;;
68792;SDS011;55778;54.346;10.210;2023-03-19T11:28:19;3.35;;;2.20;;
68792;SDS011;55778;54.346;10.210;2023-03-19T11:30:59;3.60;;;2.22;;
68792;SDS011;55778;54.346;10.210;2023-03-19T11:53:18;4.47;;;2.55;;
68792;SDS011;55778;54.346;10.210;2023-03-19T12:26:53;5.60;;;3.70;;
68792;SDS011;55778;54.346;10.210;2023-03-19T12:34:49;8.15;;;4.45;;
68792;SDS011;55778;54.346;10.210;2023-03-19T12:40:05;5.07;;;3.60;;
68792;SDS011;55778;54.346;10.210;2023-03-19T12:42:58;6.38;;;3.58;;
68792;SDS011;55778;54.346;10.210;2023-03-19T12:47:56;7.00;;;4.05;;
68792;SDS011;55778;54.346;10.210;2023-03-19T12:50:28;4.88;;;3.55;;
68792;SDS011;55778;54.346;10.210;2023-03-19T12:52:56;5.25;;;3.67;;
68792;SDS011;55778;54.346;10.210;2023-03-19T13:00:52;6.07;;;3.42;;
68792;SDS011;55778;54.346;10.210;2023-03-19T13:06:25;5.03;;;3.70;;
68792;SDS011;55778;54.346;10.210;2023-03-19T13:09:15;7.80;;;4.50;;
68792;SDS011;55778;54.346;10.210;2023-03-19T13:11:54;6.90;;;4.30;;
68792;SDS011;55778;54.346;10.210;2023-03-19T13:17:19;5.35;;;3.92;;
68792;SDS011;55778;54.346;10.210;2023-03-19T13:20:14;5.32;;;3.60;;
68792;SDS011;55778;54.346;10.210;2023-03-19T13:22:54;7.32;;;4.43;;
68792;SDS011;55778;54.346;10.210;2023-03-19T13:25:30;6.55;;;4.32;;
68792;SDS011;55778;54.346;10.210;2023-03-19T13:27:59;8.68;;;4.82;;
68792;SDS011;55778;54.346;10.210;2023-03-19T13:30:25;7.88;;;4.70;;
68792;SDS011;55778;54.346;10.210;2023-03-19T13:33:01;6.60;;;4.55;;
68792;SDS011;55778;54.346;10.210;2023-03-19T13:35:44;7.35;;;4.40;;
68792;SDS011;55778;54.346;10.210;2023-03-19T13:38:15;7.18;;;4.38;;
68792;SDS011;55778;54.346;10.210;2023-03-19T13:45:51;6.13;;;4.15;;
68792;SDS011;55778;54.346;10.210;2023-03-19T13:57:02;6.82;;;4.50;;
68792;SDS011;55778;54.346;10.210;2023-03-19T13:59:36;7.30;;;4.88;;
68792;SDS011;55778;54.346;10.210;2023-03-19T14:02:43;7.13;;;4.90;;
68792;SDS011;55778;54.346;10.210;2023-03-19T14:04:50;7.93;;;4.85;;
68792;SDS011;55778;54.346;10.210;2023-03-19T14:07:23;7.60;;;5.18;;
68792;SDS011;55778;54.346;10.210;2023-03-19T14:12:22;7.90;;;5.38;;
68792;SDS011;55778;54.346;10.210;2023-03-19T14:17:38;8.52;;;5.75;;
68792;SDS011;55778;54.346;10.210;2023-03-19T14:28:17;8.40;;;5.78;;
68792;SDS011;55778;54.346;10.210;2023-03-19T14:30:46;8.82;;;5.93;;
68792;SDS011;55778;54.346;10.210;2023-03-19T14:33:21;7.20;;;5.28;;
68792;SDS011;55778;54.346;10.210;2023-03-19T14:35:51;8.38;;;5.72;;
68792;SDS011;55778;54.346;10.210;2023-03-19T14:38:36;8.77;;;6.13;;
68792;SDS011;55778;54.346;10.210;2023-03-19T14:41:04;9.70;;;6.70;;
68792;SDS011;55778;54.346;10.210;2023-03-19T14:52:35;10.10;;;5.65;;
68792;SDS011;55778;54.346;10.210;2023-03-19T14:55:09;9.70;;;6.78;;
68792;SDS011;55778;54.346;10.210;2023-03-19T15:00:03;10.10;;;6.43;;
68792;SDS011;55778;54.346;10.210;2023-03-19T15:05:00;10.27;;;6.57;;
68792;SDS011;55778;54.346;10.210;2023-03-19T15:07:46;11.65;;;7.07;;
68792;SDS011;55778;54.346;10.210;2023-03-19T15:10:16;12.02;;;7.15;;
68792;SDS011;55778;54.346;10.210;2023-03-19T15:18:37;12.20;;;8.10;;
68792;SDS011;55778;54.346;10.210;2023-03-19T15:21:03;13.13;;;7.57;;
68792;SDS011;55778;54.346;10.210;2023-03-19T15:23:29;14.50;;;8.70;;
68792;SDS011;55778;54.346;10.210;2023-03-19T15:25:59;14.68;;;8.32;;
68792;SDS011;55778;54.346;10.210;2023-03-19T15:28:30;12.82;;;8.25;;
68792;SDS011;55778;54.346;10.210;2023-03-19T15:33:33;14.27;;;8.77;;
68792;SDS011;55778;54.346;10.210;2023-03-19T15:36:11;14.68;;;9.20;;
68792;SDS011;55778;54.346;10.210;2023-03-19T15:41:42;17.75;;;11.60;;
68792;SDS011;55778;54.346;10.210;2023-03-19T15:44:11;21.33;;;12.25;;
68792;SDS011;55778;54.346;10.210;2023-03-19T15:46:42;16.50;;;11.30;;
68792;SDS011;55778;54.346;10.210;2023-03-19T15:49:15;17.33;;;11.02;;
68792;SDS011;55778;54.346;10.210;2023-03-19T15:51:47;19.40;;;12.02;;
68792;SDS011;55778;54.346;10.210;2023-03-19T15:54:18;21.95;;;12.18;;
68792;SDS011;55778;54.346;10.210;2023-03-19T15:56:44;17.45;;;11.82;;
68792;SDS011;55778;54.346;10.210;2023-03-19T15:59:13;18.02;;;11.65;;
68792;SDS011;55778;54.346;10.210;2023-03-19T16:01:38;18.48;;;11.75;;
68792;SDS011;55778;54.346;10.210;2023-03-19T16:04:07;16.75;;;10.85;;
68792;SDS011;55778;54.346;10.210;2023-03-19T16:06:40;17.23;;;11.23;;
68792;SDS011;55778;54.346;10.210;2023-03-19T16:11:44;21.13;;;11.63;;
68792;SDS011;55778;54.346;10.210;2023-03-19T16:14:14;18.42;;;11.13;;
68792;SDS011;55778;54.346;10.210;2023-03-19T16:16:48;15.57;;;10.82;;
68792;SDS011;55778;54.346;10.210;2023-03-19T16:19:35;17.73;;;10.98;;
68792;SDS011;55778;54.346;10.210;2023-03-19T16:22:12;20.77;;;11.65;;
68792;SDS011;55778;54.346;10.210;2023-03-19T16:24:41;18.52;;;10.88;;
68792;SDS011;55778;54.346;10.210;2023-03-19T16:27:13;19.83;;;12.02;;
68792;SDS011;55778;54.346;10.210;2023-03-19T16:29:56;20.40;;;11.82;;
68792;SDS011;55778;54.346;10.210;2023-03-19T16:32:24;21.20;;;12.52;;
68792;SDS011;55778;54.346;10.210;2023-03-19T16:34:54;19.40;;;10.82;;
68792;SDS011;55778;54.346;10.210;2023-03-19T16:45:38;17.80;;;9.55;;
68792;SDS011;55778;54.346;10.210;2023-03-19T16:47:59;19.35;;;9.93;;
68792;SDS011;55778;54.346;10.210;2023-03-19T16:52:54;18.13;;;8.65;;
68792;SDS011;55778;54.346;10.210;2023-03-19T17:00:30;17.77;;;9.40;;
68792;SDS011;55778;54.346;10.210;2023-03-19T17:02:56;16.92;;;8.68;;
68792;SDS011;55778;54.346;10.210;2023-03-19T17:05:22;16.25;;;8.90;;
68792;SDS011;55778;54.346;10.210;2023-03-19T17:07:48;16.17;;;8.75;;
68792;SDS011;55778;54.346;10.210;2023-03-19T17:10:18;16.80;;;8.40;;
68792;SDS011;55778;54.346;10.210;2023-03-19T17:12:49;17.90;;;8.85;;
68792;SDS011;55778;54.346;10.210;2023-03-19T17:15:36;16.85;;;8.27;;
68792;SDS011;55778;54.346;10.210;2023-03-19T17:18:15;16.25;;;9.32;;